createdAt,value
2019-03-09T00:01:58.036Z,98934.00
2019-03-09T00:04:25.177Z,98932.00
2019-03-09T00:06:52.357Z,98928.00
2019-03-09T00:09:19.539Z,98945.00
2019-03-09T00:11:46.676Z,98944.00
2019-03-09T00:14:14.396Z,98945.00
2019-03-09T00:16:41.676Z,98937.00
2019-03-09T00:19:08.836Z,98933.00
2019-03-09T00:21:36.036Z,98944.00
2019-03-09T00:24:17.356Z,98942.00
2019-03-09T00:26:46.700Z,98953.00
2019-03-09T00:29:18.856Z,98952.00
2019-03-09T00:31:47.856Z,98941.00
2019-03-09T00:34:15.057Z,98950.00
2019-03-09T00:36:42.595Z,98952.00
2019-03-09T00:39:10.335Z,98955.00
2019-03-09T00:41:37.508Z,98940.00
2019-03-09T00:44:04.717Z,98939.00
2019-03-09T00:46:31.959Z,98938.00
2019-03-09T00:48:59.158Z,98940.00
2019-03-09T00:51:26.337Z,98930.00
2019-03-09T00:53:53.936Z,98932.00
2019-03-09T00:56:21.416Z,98911.00
2019-03-09T00:58:49.039Z,98923.00
2019-03-09T01:01:16.377Z,98917.00
2019-03-09T01:03:43.876Z,98907.00
2019-03-09T01:06:11.019Z,98907.00
2019-03-09T01:08:38.275Z,98902.00
2019-03-09T01:11:05.518Z,98902.00
2019-03-09T01:13:32.666Z,98898.00
2019-03-09T01:15:59.850Z,98892.00
2019-03-09T01:18:26.996Z,98885.00
2019-03-09T01:20:54.178Z,98879.00
2019-03-09T01:23:21.356Z,98888.00
2019-03-09T01:25:48.458Z,98895.00
2019-03-09T01:28:15.799Z,98884.00
2019-03-09T01:30:42.895Z,98887.00
2019-03-09T01:33:10.116Z,98884.00
2019-03-09T01:35:37.275Z,98883.00
2019-03-09T01:38:04.415Z,98881.00
2019-03-09T01:40:31.537Z,98879.00
2019-03-09T01:42:58.716Z,98882.00
2019-03-09T01:45:25.927Z,98883.00
2019-03-09T01:47:53.081Z,98877.00
2019-03-09T01:50:20.221Z,98876.00
2019-03-09T01:52:47.435Z,98877.00
2019-03-09T01:55:14.615Z,98879.00
2019-03-09T01:57:41.802Z,98883.00
2019-03-09T02:00:16.056Z,98872.00
2019-03-09T02:02:43.315Z,98874.00
2019-03-09T02:05:10.915Z,98880.00
2019-03-09T02:07:38.481Z,98873.00
2019-03-09T02:10:13.035Z,98874.00
2019-03-09T02:12:40.176Z,98867.00
2019-03-09T02:15:13.199Z,98864.00
2019-03-09T02:17:40.416Z,98868.00
2019-03-09T02:20:10.781Z,98858.00
2019-03-09T02:22:37.995Z,98863.00
2019-03-09T02:25:07.395Z,98856.00
2019-03-09T02:27:34.675Z,98845.00
2019-03-09T02:30:02.369Z,98839.00
2019-03-09T02:32:29.582Z,98844.00
2019-03-09T02:34:56.799Z,98844.00
2019-03-09T02:37:23.989Z,98850.00
2019-03-09T02:40:02.088Z,98857.00
2019-03-09T02:42:29.536Z,98855.00
2019-03-09T02:44:56.798Z,98849.00
2019-03-09T02:47:23.998Z,98844.00
2019-03-09T02:49:51.155Z,98837.00
2019-03-09T02:52:18.776Z,98849.00
2019-03-09T02:54:45.981Z,98839.00
2019-03-09T02:57:13.118Z,98835.00
2019-03-09T02:59:40.277Z,98836.00
2019-03-09T03:02:24.555Z,98826.00
2019-03-09T03:04:51.716Z,98824.00
2019-03-09T03:07:18.897Z,98829.00
2019-03-09T03:09:46.101Z,98835.00
2019-03-09T03:12:13.258Z,98826.00
2019-03-09T03:14:40.455Z,98827.00
2019-03-09T03:17:07.675Z,98825.00
2019-03-09T03:19:34.838Z,98829.00
2019-03-09T03:22:01.998Z,98819.00
2019-03-09T03:24:29.176Z,98817.00
2019-03-09T03:26:56.417Z,98812.00
2019-03-09T03:29:23.517Z,98805.00
2019-03-09T03:31:50.677Z,98799.00
2019-03-09T03:34:17.930Z,98795.00
2019-03-09T03:36:45.196Z,98784.00
2019-03-09T03:39:12.317Z,98786.00
2019-03-09T03:41:39.476Z,98782.00
2019-03-09T03:44:06.699Z,98798.00
2019-03-09T03:46:33.855Z,98798.00
2019-03-09T03:49:03.761Z,98798.00
2019-03-09T03:51:30.399Z,98810.00
2019-03-09T03:53:57.785Z,98813.00
2019-03-09T03:56:25.089Z,98807.00
2019-03-09T03:58:52.321Z,98803.00
2019-03-09T04:01:19.656Z,98807.00
2019-03-09T04:03:46.919Z,98802.00
2019-03-09T04:06:14.437Z,98800.00
2019-03-09T04:08:41.818Z,98799.00
2019-03-09T04:11:09.076Z,98815.00
2019-03-09T04:13:36.283Z,98797.00
2019-03-09T04:16:03.567Z,98794.00
2019-03-09T04:18:30.817Z,98785.00
2019-03-09T04:20:57.918Z,98777.00
2019-03-09T04:23:25.096Z,98766.00
2019-03-09T04:25:52.355Z,98770.00
2019-03-09T04:28:19.750Z,98761.00
2019-03-09T04:30:46.950Z,98756.00
2019-03-09T04:33:14.215Z,98753.00
2019-03-09T04:35:41.359Z,98750.00
2019-03-09T04:38:08.556Z,98740.00
2019-03-09T04:40:35.715Z,98743.00
2019-03-09T04:43:02.855Z,98731.00
2019-03-09T04:45:29.955Z,98741.00
2019-03-09T04:47:57.156Z,98739.00
2019-03-09T04:50:24.375Z,98736.00
2019-03-09T04:52:51.535Z,98743.00
2019-03-09T04:55:18.665Z,98748.00
2019-03-09T04:57:45.860Z,98751.00
2019-03-09T05:00:15.536Z,98738.00
2019-03-09T05:02:42.827Z,98749.00
2019-03-09T05:05:11.239Z,98750.00
2019-03-09T05:07:42.738Z,98762.00
2019-03-09T05:10:42.576Z,98774.00
2019-03-09T05:13:17.853Z,98773.00
2019-03-09T05:15:44.996Z,98752.00
2019-03-09T05:18:12.856Z,98740.00
2019-03-09T05:20:40.036Z,98736.00
2019-03-09T05:23:07.195Z,98726.00
2019-03-09T05:25:34.435Z,98722.00
2019-03-09T05:28:01.555Z,98723.00
2019-03-09T05:30:45.435Z,98714.00
2019-03-09T05:33:12.614Z,98719.00
2019-03-09T05:35:40.199Z,98727.00
2019-03-09T05:38:07.477Z,98725.00
2019-03-09T05:40:34.956Z,98717.00
2019-03-09T05:43:02.096Z,98725.00
2019-03-09T05:45:29.255Z,98733.00
2019-03-09T05:47:56.516Z,98729.00
2019-03-09T05:50:23.775Z,98715.00
2019-03-09T05:53:10.956Z,98725.00
2019-03-09T05:55:38.135Z,98718.00
2019-03-09T05:58:05.287Z,98723.00
2019-03-09T06:00:33.635Z,98734.00
2019-03-09T06:03:00.924Z,98733.00
2019-03-09T06:05:34.194Z,98723.00
2019-03-09T06:08:01.417Z,98735.00
2019-03-09T06:10:28.576Z,98743.00
2019-03-09T06:12:55.738Z,98744.00
2019-03-09T06:15:22.916Z,98743.00
2019-03-09T06:17:50.076Z,98733.00
2019-03-09T06:20:17.195Z,98736.00
2019-03-09T06:22:44.375Z,98736.00
2019-03-09T06:25:11.499Z,98728.00
2019-03-09T06:27:38.662Z,98738.00
2019-03-09T06:30:09.516Z,98725.00
2019-03-09T06:32:42.136Z,98707.00
2019-03-09T06:35:19.542Z,98708.00
2019-03-09T06:37:55.815Z,98703.00
2019-03-09T06:40:23.215Z,98699.00
2019-03-09T06:42:50.300Z,98705.00
2019-03-09T06:45:17.776Z,98700.00
2019-03-09T06:48:04.735Z,98701.00
2019-03-09T06:50:32.050Z,98694.00
2019-03-09T06:52:59.659Z,98686.00
2019-03-09T06:55:26.874Z,98700.00
2019-03-09T06:57:54.115Z,98703.00
2019-03-09T07:00:33.357Z,98691.00
2019-03-09T07:03:00.739Z,98679.00
2019-03-09T07:05:27.975Z,98701.00
2019-03-09T07:07:55.155Z,98703.00
2019-03-09T07:10:22.315Z,98698.00
2019-03-09T07:12:49.496Z,98706.00
2019-03-09T07:15:26.929Z,98706.00
2019-03-09T07:17:57.630Z,98705.00
2019-03-09T07:20:24.789Z,98695.00
2019-03-09T07:22:51.980Z,98679.00
2019-03-09T07:25:19.133Z,98678.00
2019-03-09T07:27:57.846Z,98679.00
2019-03-09T07:30:25.068Z,98679.00
2019-03-09T07:32:52.249Z,98679.00
2019-03-09T07:35:19.696Z,98669.00
2019-03-09T07:37:46.849Z,98670.00
2019-03-09T07:40:13.989Z,98664.00
2019-03-09T07:42:41.170Z,98673.00
2019-03-09T07:45:12.790Z,98671.00
2019-03-09T07:47:40.010Z,98656.00
2019-03-09T07:50:12.289Z,98652.00
2019-03-09T07:52:39.510Z,98665.00
2019-03-09T07:55:16.190Z,98674.00
2019-03-09T07:57:43.529Z,98677.00
2019-03-09T08:00:18.729Z,98675.00
2019-03-09T08:02:46.231Z,98679.00
2019-03-09T08:05:13.490Z,98669.00
2019-03-09T08:07:40.612Z,98676.00
2019-03-09T08:10:18.198Z,98662.00
2019-03-09T08:12:45.518Z,98657.00
2019-03-09T08:15:18.809Z,98663.00
2019-03-09T08:17:46.565Z,98658.00
2019-03-09T08:20:18.664Z,98652.00
2019-03-09T08:22:45.988Z,98636.00
2019-03-09T08:25:16.340Z,98612.00
2019-03-09T08:27:43.579Z,98634.00
2019-03-09T08:30:14.778Z,98635.00
2019-03-09T08:32:41.984Z,98637.00
2019-03-09T08:35:09.861Z,98650.00
2019-03-09T08:37:37.338Z,98657.00
2019-03-09T08:40:15.200Z,98673.00
2019-03-09T08:42:43.144Z,98671.00
2019-03-09T08:45:15.121Z,98679.00
2019-03-09T08:47:51.658Z,98673.00
2019-03-09T08:50:15.361Z,98680.00
2019-03-09T08:52:42.581Z,98681.00
2019-03-09T08:55:12.779Z,98684.00
2019-03-09T08:57:41.641Z,98691.00
2019-03-09T09:00:19.202Z,98698.00
2019-03-09T09:02:46.441Z,98699.00
2019-03-09T09:05:13.658Z,98702.00
2019-03-09T09:07:40.858Z,98721.00
2019-03-09T09:10:10.326Z,98706.00
2019-03-09T09:12:37.478Z,98726.00
2019-03-09T09:15:09.599Z,98720.00
2019-03-09T09:17:36.707Z,98723.00
2019-03-09T09:20:09.351Z,98708.00
2019-03-09T09:22:36.567Z,98713.00
2019-03-09T09:25:06.338Z,98716.00
2019-03-09T09:27:33.485Z,98703.00
2019-03-09T09:30:00.686Z,98705.00
2019-03-09T09:32:27.828Z,98709.00
2019-03-09T09:34:55.649Z,98708.00
2019-03-09T09:37:22.912Z,98717.00
2019-03-09T09:39:50.250Z,98717.00
2019-03-09T09:42:17.408Z,98722.00
2019-03-09T09:44:44.588Z,98728.00
2019-03-09T09:47:12.053Z,98721.00
2019-03-09T09:49:39.258Z,98711.00
2019-03-09T09:52:06.409Z,98721.00
2019-03-09T09:54:33.589Z,98725.00
2019-03-09T09:57:00.788Z,98717.00
2019-03-09T09:59:28.831Z,98716.00
2019-03-09T10:01:55.979Z,98721.00
2019-03-09T10:04:23.309Z,98713.00
2019-03-09T10:06:50.949Z,98706.00
2019-03-09T10:09:18.108Z,98702.00
2019-03-09T10:11:45.333Z,98691.00
2019-03-09T10:14:12.487Z,98677.00
2019-03-09T10:16:39.628Z,98684.00
2019-03-09T10:19:06.829Z,98692.00
2019-03-09T10:21:34.008Z,98691.00
2019-03-09T10:24:01.208Z,98692.00
2019-03-09T10:26:28.411Z,98689.00
2019-03-09T10:28:55.829Z,98692.00
2019-03-09T10:31:23.048Z,98682.00
2019-03-09T10:33:50.189Z,98683.00
2019-03-09T10:36:17.412Z,98688.00
2019-03-09T10:38:44.569Z,98685.00
2019-03-09T10:41:12.078Z,98692.00
2019-03-09T10:43:39.244Z,98695.00
2019-03-09T10:46:06.376Z,98672.00
2019-03-09T10:48:33.576Z,98689.00
2019-03-09T10:51:00.736Z,98685.00
2019-03-09T10:53:27.956Z,98689.00
2019-03-09T10:55:55.143Z,98683.00
2019-03-09T10:58:22.298Z,98674.00
2019-03-09T11:00:49.456Z,98677.00
2019-03-09T11:03:16.641Z,98659.00
2019-03-09T11:05:43.752Z,98672.00
2019-03-09T11:08:10.972Z,98664.00
2019-03-09T11:10:38.185Z,98666.00
2019-03-09T11:13:05.287Z,98663.00
2019-03-09T11:15:33.045Z,98662.00
2019-03-09T11:18:00.226Z,98669.00
2019-03-09T11:20:27.388Z,98662.00
2019-03-09T11:22:54.565Z,98664.00
2019-03-09T11:25:22.278Z,98662.00
2019-03-09T11:27:49.624Z,98650.00
2019-03-09T11:30:25.740Z,98653.00
2019-03-09T11:32:53.269Z,98649.00
2019-03-09T11:35:20.468Z,98640.00
2019-03-09T11:37:48.013Z,98640.00
2019-03-09T11:40:15.231Z,98641.00
2019-03-09T11:42:42.671Z,98634.00
2019-03-09T11:45:17.368Z,98624.00
2019-03-09T11:47:44.616Z,98628.00
2019-03-09T11:50:15.152Z,98644.00
2019-03-09T11:52:42.319Z,98626.00
2019-03-09T11:55:11.830Z,98633.00
2019-03-09T11:57:39.043Z,98627.00
2019-03-09T12:00:19.906Z,98623.00
2019-03-09T12:02:47.962Z,98624.00
2019-03-09T12:05:15.218Z,98614.00
2019-03-09T12:07:42.385Z,98621.00
2019-03-09T12:10:10.932Z,98619.00
2019-03-09T12:12:38.539Z,98606.00
2019-03-09T12:15:13.172Z,98605.00
2019-03-09T12:17:40.365Z,98598.00
2019-03-09T12:20:10.013Z,98597.00
2019-03-09T12:22:37.421Z,98575.00
2019-03-09T12:25:11.510Z,98565.00
2019-03-09T12:27:38.719Z,98581.00
2019-03-09T12:30:15.337Z,98565.00
2019-03-09T12:32:42.515Z,98564.00
2019-03-09T12:35:09.625Z,98563.00
2019-03-09T12:37:36.774Z,98557.00
2019-03-09T12:40:08.846Z,98559.00
2019-03-09T12:42:35.980Z,98556.00
2019-03-09T12:45:06.365Z,98547.00
2019-03-09T12:47:33.605Z,98537.00
2019-03-09T12:50:00.699Z,98538.00
2019-03-09T12:52:28.244Z,98527.00
2019-03-09T12:54:55.385Z,98519.00
2019-03-09T12:57:22.725Z,98518.00
2019-03-09T12:59:49.925Z,98529.00
2019-03-09T13:02:17.037Z,98528.00
2019-03-09T13:04:44.436Z,98517.00
2019-03-09T13:07:11.614Z,98522.00
2019-03-09T13:09:38.808Z,98520.00
2019-03-09T13:12:08.617Z,98522.00
2019-03-09T13:14:35.576Z,98510.00
2019-03-09T13:17:02.750Z,98509.00
2019-03-09T13:19:29.774Z,98488.00
2019-03-09T13:21:57.069Z,98486.00
2019-03-09T13:24:24.259Z,98485.00
2019-03-09T13:26:51.454Z,98469.00
2019-03-09T13:29:18.875Z,98478.00
2019-03-09T13:31:46.075Z,98468.00
2019-03-09T13:34:13.228Z,98465.00
2019-03-09T13:36:40.412Z,98465.00
2019-03-09T13:39:07.863Z,98461.00
2019-03-09T13:41:35.018Z,98472.00
2019-03-09T13:44:02.569Z,98469.00
2019-03-09T13:46:29.727Z,98464.00
2019-03-09T13:48:56.820Z,98471.00
2019-03-09T13:51:24.184Z,98465.00
2019-03-09T13:53:51.365Z,98468.00
2019-03-09T13:56:18.451Z,98467.00
2019-03-09T13:58:46.049Z,98455.00
2019-03-09T14:01:13.246Z,98454.00
2019-03-09T14:03:40.340Z,98446.00
2019-03-09T14:06:07.554Z,98458.00
2019-03-09T14:08:34.664Z,98457.00
2019-03-09T14:11:02.213Z,98446.00
2019-03-09T14:13:29.352Z,98457.00
2019-03-09T14:15:58.651Z,98455.00
2019-03-09T14:18:25.762Z,98456.00
2019-03-09T14:20:52.878Z,98455.00
2019-03-09T14:23:20.034Z,98450.00
2019-03-09T14:25:47.146Z,98461.00
2019-03-09T14:28:14.300Z,98463.00
2019-03-09T14:30:41.529Z,98469.00
2019-03-09T14:33:08.905Z,98471.00
2019-03-09T14:35:36.606Z,98457.00
2019-03-09T14:38:03.771Z,98451.00
2019-03-09T14:40:30.950Z,98457.00
2019-03-09T14:42:58.045Z,98445.00
2019-03-09T14:45:25.306Z,98453.00
2019-03-09T14:47:52.499Z,98432.00
2019-03-09T14:50:19.634Z,98451.00
2019-03-09T14:52:46.976Z,98440.00
2019-03-09T14:55:14.635Z,98444.00
2019-03-09T14:57:41.782Z,98451.00
2019-03-09T15:00:18.639Z,98447.00
2019-03-09T15:02:45.807Z,98440.00
2019-03-09T15:05:13.450Z,98449.00
2019-03-09T15:07:41.634Z,98445.00
2019-03-09T15:10:10.947Z,98447.00
2019-03-09T15:12:38.110Z,98449.00
2019-03-09T15:15:10.273Z,98444.00
2019-03-09T15:17:37.497Z,98445.00
2019-03-09T15:20:08.734Z,98433.00
2019-03-09T15:22:35.936Z,98422.00
2019-03-09T15:25:05.278Z,98429.00
2019-03-09T15:27:34.309Z,98424.00
2019-03-09T15:30:01.718Z,98433.00
2019-03-09T15:32:28.841Z,98428.00
2019-03-09T15:34:55.958Z,98429.00
2019-03-09T15:37:23.118Z,98414.00
2019-03-09T15:39:50.211Z,98414.00
2019-03-09T15:42:17.692Z,98416.00
2019-03-09T15:44:44.910Z,98413.00
2019-03-09T15:47:12.122Z,98405.00
2019-03-09T15:49:39.323Z,98401.00
2019-03-09T15:52:06.582Z,98407.00
2019-03-09T15:54:33.971Z,98386.00
2019-03-09T15:57:01.082Z,98379.00
2019-03-09T15:59:28.696Z,98377.00
2019-03-09T16:01:55.817Z,98377.00
2019-03-09T16:04:22.992Z,98370.00
2019-03-09T16:06:50.315Z,98353.00
2019-03-09T16:09:17.448Z,98351.00
2019-03-09T16:11:45.328Z,98351.00
2019-03-09T16:14:12.820Z,98346.00
2019-03-09T16:16:39.951Z,98337.00
2019-03-09T16:19:07.115Z,98333.00
2019-03-09T16:21:34.651Z,98329.00
2019-03-09T16:24:01.876Z,98329.00
2019-03-09T16:26:28.974Z,98319.00
2019-03-09T16:28:56.215Z,98314.00
2019-03-09T16:31:23.405Z,98322.00
2019-03-09T16:33:50.593Z,98339.00
2019-03-09T16:36:17.843Z,98327.00
2019-03-09T16:38:44.985Z,98334.00
2019-03-09T16:41:12.103Z,98323.00
2019-03-09T16:43:39.283Z,98325.00
2019-03-09T16:46:06.436Z,98321.00
2019-03-09T16:48:33.629Z,98325.00
2019-03-09T16:51:00.794Z,98317.00
2019-03-09T16:53:27.954Z,98314.00
2019-03-09T16:55:55.121Z,98315.00
2019-03-09T16:58:22.313Z,98313.00
2019-03-09T17:00:49.474Z,98308.00
2019-03-09T17:03:16.694Z,98312.00
2019-03-09T17:05:43.874Z,98307.00
2019-03-09T17:08:11.035Z,98319.00
2019-03-09T17:10:38.275Z,98317.00
2019-03-09T17:13:06.373Z,98324.00
2019-03-09T17:15:33.575Z,98334.00
2019-03-09T17:18:00.732Z,98325.00
2019-03-09T17:20:27.957Z,98331.00
2019-03-09T17:22:55.132Z,98343.00
2019-03-09T17:25:22.311Z,98366.00
2019-03-09T17:27:49.493Z,98380.00
2019-03-09T17:30:20.226Z,98364.00
2019-03-09T17:32:47.299Z,98374.00
2019-03-09T17:35:14.702Z,98372.00
2019-03-09T17:37:42.358Z,98406.00
2019-03-09T17:40:15.597Z,98398.00
2019-03-09T17:42:42.838Z,98390.00
2019-03-09T17:45:24.238Z,98389.00
2019-03-09T17:47:51.399Z,98405.00
2019-03-09T17:50:18.539Z,98407.00
2019-03-09T17:52:45.739Z,98388.00
2019-03-09T17:55:13.220Z,98403.00
2019-03-09T17:57:40.399Z,98397.00
2019-03-09T18:00:15.638Z,98397.00
2019-03-09T18:02:42.798Z,98376.00
2019-03-09T18:05:09.980Z,98383.00
2019-03-09T18:07:37.178Z,98369.00
2019-03-09T18:10:36.998Z,98368.00
2019-03-09T18:13:04.125Z,98360.00
2019-03-09T18:15:31.359Z,98350.00
2019-03-09T18:17:58.546Z,98345.00
2019-03-09T18:20:25.693Z,98359.00
2019-03-09T18:22:53.238Z,98354.00
2019-03-09T18:25:20.439Z,98363.00
2019-03-09T18:27:47.619Z,98345.00
2019-03-09T18:30:14.858Z,98335.00
2019-03-09T18:32:42.018Z,98328.00
2019-03-09T18:35:11.552Z,98325.00
2019-03-09T18:37:38.798Z,98309.00
2019-03-09T18:40:12.538Z,98306.00
2019-03-09T18:42:39.758Z,98297.00
2019-03-09T18:45:16.021Z,98280.00
2019-03-09T18:47:43.339Z,98268.00
2019-03-09T18:50:10.747Z,98256.00
2019-03-09T18:52:37.881Z,98259.00
2019-03-09T18:55:06.922Z,98265.00
2019-03-09T18:57:34.061Z,98257.00
2019-03-09T19:00:01.360Z,98263.00
2019-03-09T19:02:28.498Z,98266.00
2019-03-09T19:04:55.674Z,98279.00
2019-03-09T19:07:22.921Z,98279.00
2019-03-09T19:09:50.098Z,98288.00
2019-03-09T19:12:17.255Z,98305.00
2019-03-09T19:14:44.584Z,98302.00
2019-03-09T19:17:11.717Z,98311.00
2019-03-09T19:19:38.856Z,98309.00
2019-03-09T19:22:06.075Z,98318.00
2019-03-09T19:24:33.495Z,98312.00
2019-03-09T19:27:02.095Z,98305.00
2019-03-09T19:29:29.541Z,98308.00
2019-03-09T19:31:56.775Z,98291.00
2019-03-09T19:34:23.935Z,98301.00
2019-03-09T19:36:51.255Z,98294.00
2019-03-09T19:39:18.436Z,98296.00
2019-03-09T19:41:45.635Z,98279.00
2019-03-09T19:44:12.775Z,98287.00
2019-03-09T19:46:39.975Z,98288.00
2019-03-09T19:49:07.175Z,98279.00
2019-03-09T19:51:34.343Z,98289.00
2019-03-09T19:54:01.575Z,98307.00
2019-03-09T19:56:28.815Z,98311.00
2019-03-09T19:58:55.966Z,98307.00
2019-03-09T20:01:23.126Z,98315.00
2019-03-09T20:03:50.375Z,98298.00
2019-03-09T20:06:18.029Z,98319.00
2019-03-09T20:08:45.156Z,98341.00
2019-03-09T20:11:12.318Z,98329.00
2019-03-09T20:13:39.460Z,98340.00
2019-03-09T20:16:06.715Z,98346.00
2019-03-09T20:18:33.895Z,98340.00
2019-03-09T20:21:01.075Z,98334.00
2019-03-09T20:23:28.236Z,98352.00
2019-03-09T20:25:55.498Z,98351.00
2019-03-09T20:28:22.679Z,98335.00
2019-03-09T20:30:49.973Z,98359.00
2019-03-09T20:33:17.215Z,98334.00
2019-03-09T20:35:44.374Z,98333.00
2019-03-09T20:38:11.555Z,98343.00
2019-03-09T20:40:38.699Z,98361.00
2019-03-09T20:43:05.875Z,98357.00
2019-03-09T20:45:33.056Z,98362.00
2019-03-09T20:48:00.235Z,98364.00
2019-03-09T20:50:27.415Z,98371.00
2019-03-09T20:52:54.916Z,98363.00
2019-03-09T20:55:22.063Z,98374.00
2019-03-09T20:57:49.256Z,98374.00
2019-03-09T21:00:19.608Z,98375.00
2019-03-09T21:02:47.036Z,98357.00
2019-03-09T21:05:14.257Z,98390.00
2019-03-09T21:07:41.475Z,98390.00
2019-03-09T21:10:12.435Z,98407.00
2019-03-09T21:13:05.501Z,98410.00
2019-03-09T21:15:32.644Z,98414.00
2019-03-09T21:17:59.828Z,98412.00
2019-03-09T21:20:27.396Z,98393.00
2019-03-09T21:22:54.855Z,98410.00
2019-03-09T21:25:21.991Z,98405.00
2019-03-09T21:27:49.198Z,98402.00
2019-03-09T21:30:17.076Z,98406.00
2019-03-09T21:32:44.416Z,98409.00
2019-03-09T21:35:11.756Z,98402.00
2019-03-09T21:37:38.917Z,98412.00
2019-03-09T21:40:07.499Z,98411.00
2019-03-09T21:42:34.575Z,98397.00
2019-03-09T21:45:01.937Z,98411.00
2019-03-09T21:47:29.115Z,98412.00
2019-03-09T21:49:56.696Z,98410.00
2019-03-09T21:52:23.916Z,98410.00
2019-03-09T21:54:51.076Z,98413.00
2019-03-09T21:57:18.255Z,98423.00
2019-03-09T21:59:45.435Z,98416.00
2019-03-09T22:02:12.595Z,98423.00
2019-03-09T22:04:39.759Z,98421.00
2019-03-09T22:07:07.095Z,98416.00
2019-03-09T22:09:34.295Z,98415.00
2019-03-09T22:12:01.519Z,98415.00
2019-03-09T22:14:28.719Z,98419.00
2019-03-09T22:16:56.924Z,98422.00
2019-03-09T22:19:24.415Z,98417.00
2019-03-09T22:21:51.536Z,98419.00
2019-03-09T22:24:18.776Z,98415.00
2019-03-09T22:26:45.916Z,98423.00
2019-03-09T22:29:13.116Z,98436.00
2019-03-09T22:31:40.337Z,98428.00
2019-03-09T22:34:07.497Z,98433.00
2019-03-09T22:36:34.697Z,98427.00
2019-03-09T22:39:01.706Z,98429.00
2019-03-09T22:41:28.883Z,98444.00
2019-03-09T22:43:56.496Z,98452.00
2019-03-09T22:46:23.651Z,98462.00
2019-03-09T22:48:50.798Z,98453.00
2019-03-09T22:51:17.979Z,98452.00
2019-03-09T22:53:45.136Z,98438.00
2019-03-09T22:56:12.278Z,98457.00
2019-03-09T22:58:39.517Z,98451.00
2019-03-09T23:01:06.756Z,98454.00
2019-03-09T23:03:33.857Z,98455.00
2019-03-09T23:06:01.056Z,98447.00
2019-03-09T23:08:28.336Z,98460.00
2019-03-09T23:10:55.476Z,98457.00
2019-03-09T23:13:22.691Z,98450.00
2019-03-09T23:15:49.836Z,98450.00
2019-03-09T23:18:16.971Z,98459.00
2019-03-09T23:20:44.172Z,98471.00
2019-03-09T23:23:11.652Z,98473.00
2019-03-09T23:25:39.614Z,98468.00
2019-03-09T23:28:07.330Z,98470.00
2019-03-09T23:30:34.751Z,98477.00
2019-03-09T23:33:01.935Z,98489.00
2019-03-09T23:35:29.271Z,98491.00
2019-03-09T23:37:56.656Z,98477.00
2019-03-09T23:40:24.070Z,98485.00
2019-03-09T23:42:51.510Z,98483.00
2019-03-09T23:45:28.673Z,98498.00
2019-03-09T23:47:56.050Z,98489.00
2019-03-09T23:50:23.311Z,98483.00
2019-03-09T23:52:50.631Z,98471.00
2019-03-09T23:55:22.597Z,98494.00
2019-03-09T23:57:48.353Z,98489.00
